sensor_id;sensor_type;location;lat;lon;timestamp;P1;durP1;ratioP1;P2;durP2;ratioP2
56537;SDS011;42435;53.292;6.000;2023-10-08T00:02:16;1.63;;;0.30;;
56537;SDS011;42435;53.292;6.000;2023-10-08T00:04:47;2.25;;;0.20;;
56537;SDS011;42435;53.292;6.000;2023-10-08T00:07:16;1.25;;;0.20;;
56537;SDS011;42435;53.292;6.000;2023-10-08T00:09:47;1.95;;;0.30;;
56537;SDS011;42435;53.292;6.000;2023-10-08T00:12:13;1.88;;;0.20;;
56537;SDS011;42435;53.292;6.000;2023-10-08T00:14:41;1.52;;;0.20;;
56537;SDS011;42435;53.292;6.000;2023-10-08T00:17:12;2.63;;;0.30;;
56537;SDS011;42435;53.292;6.000;2023-10-08T00:19:39;1.63;;;0.22;;
56537;SDS011;42435;53.292;6.000;2023-10-08T00:22:05;1.33;;;0.22;;
56537;SDS011;42435;53.292;6.000;2023-10-08T00:24:32;1.40;;;0.25;;
56537;SDS011;42435;53.292;6.000;2023-10-08T00:26:58;2.90;;;0.50;;
56537;SDS011;42435;53.292;6.000;2023-10-08T00:29:25;2.95;;;0.55;;
56537;SDS011;42435;53.292;6.000;2023-10-08T00:31:51;3.63;;;0.45;;
56537;SDS011;42435;53.292;6.000;2023-10-08T00:34:21;1.00;;;0.10;;
56537;SDS011;42435;53.292;6.000;2023-10-08T00:36:48;2.63;;;0.10;;
56537;SDS011;42435;53.292;6.000;2023-10-08T00:39:14;0.95;;;0.40;;
56537;SDS011;42435;53.292;6.000;2023-10-08T00:41:41;3.70;;;0.20;;
56537;SDS011;42435;53.292;6.000;2023-10-08T00:44:10;1.10;;;0.20;;
56537;SDS011;42435;53.292;6.000;2023-10-08T00:46:39;0.82;;;0.10;;
56537;SDS011;42435;53.292;6.000;2023-10-08T00:49:13;2.10;;;0.20;;
56537;SDS011;42435;53.292;6.000;2023-10-08T00:51:46;2.55;;;0.30;;
56537;SDS011;42435;53.292;6.000;2023-10-08T00:54:13;1.45;;;0.20;;
56537;SDS011;42435;53.292;6.000;2023-10-08T00:56:42;1.70;;;0.20;;
56537;SDS011;42435;53.292;6.000;2023-10-08T00:59:18;1.30;;;0.30;;
56537;SDS011;42435;53.292;6.000;2023-10-08T01:01:49;3.00;;;0.30;;
56537;SDS011;42435;53.292;6.000;2023-10-08T01:04:24;2.53;;;0.55;;
56537;SDS011;42435;53.292;6.000;2023-10-08T01:06:59;2.42;;;0.20;;
56537;SDS011;42435;53.292;6.000;2023-10-08T01:09:39;2.97;;;0.40;;
56537;SDS011;42435;53.292;6.000;2023-10-08T01:12:11;2.80;;;0.40;;
56537;SDS011;42435;53.292;6.000;2023-10-08T01:14:47;2.78;;;0.50;;
56537;SDS011;42435;53.292;6.000;2023-10-08T01:17:22;3.70;;;0.40;;
56537;SDS011;42435;53.292;6.000;2023-10-08T01:19:52;3.35;;;0.65;;
56537;SDS011;42435;53.292;6.000;2023-10-08T01:22:36;5.40;;;0.43;;
56537;SDS011;42435;53.292;6.000;2023-10-08T01:25:04;1.85;;;0.40;;
56537;SDS011;42435;53.292;6.000;2023-10-08T01:27:31;2.80;;;0.40;;
56537;SDS011;42435;53.292;6.000;2023-10-08T01:29:59;2.83;;;0.60;;
56537;SDS011;42435;53.292;6.000;2023-10-08T01:32:42;3.95;;;0.73;;
56537;SDS011;42435;53.292;6.000;2023-10-08T01:35:09;4.57;;;0.50;;
56537;SDS011;42435;53.292;6.000;2023-10-08T01:37:48;2.05;;;0.50;;
56537;SDS011;42435;53.292;6.000;2023-10-08T01:40:15;2.65;;;1.20;;
56537;SDS011;42435;53.292;6.000;2023-10-08T01:42:41;2.90;;;0.60;;
56537;SDS011;42435;53.292;6.000;2023-10-08T01:45:07;3.33;;;0.70;;
56537;SDS011;42435;53.292;6.000;2023-10-08T01:47:35;1.58;;;0.50;;
56537;SDS011;42435;53.292;6.000;2023-10-08T01:50:01;2.63;;;0.50;;
56537;SDS011;42435;53.292;6.000;2023-10-08T01:52:30;1.05;;;0.30;;
56537;SDS011;42435;53.292;6.000;2023-10-08T01:54:56;2.85;;;0.75;;
56537;SDS011;42435;53.292;6.000;2023-10-08T01:57:22;4.10;;;0.70;;
56537;SDS011;42435;53.292;6.000;2023-10-08T01:59:48;2.28;;;0.50;;
56537;SDS011;42435;53.292;6.000;2023-10-08T02:02:14;5.35;;;0.80;;
56537;SDS011;42435;53.292;6.000;2023-10-08T02:04:42;2.45;;;0.50;;
56537;SDS011;42435;53.292;6.000;2023-10-08T02:07:09;5.30;;;1.10;;
56537;SDS011;42435;53.292;6.000;2023-10-08T02:09:40;3.13;;;0.63;;
56537;SDS011;42435;53.292;6.000;2023-10-08T02:12:06;5.07;;;1.08;;
56537;SDS011;42435;53.292;6.000;2023-10-08T02:14:33;6.82;;;0.80;;
56537;SDS011;42435;53.292;6.000;2023-10-08T02:17:00;3.15;;;0.88;;
56537;SDS011;42435;53.292;6.000;2023-10-08T02:19:31;5.03;;;1.75;;
56537;SDS011;42435;53.292;6.000;2023-10-08T02:21:57;8.32;;;1.00;;
56537;SDS011;42435;53.292;6.000;2023-10-08T02:24:23;2.78;;;0.65;;
56537;SDS011;42435;53.292;6.000;2023-10-08T02:26:53;5.80;;;1.10;;
56537;SDS011;42435;53.292;6.000;2023-10-08T02:29:23;5.32;;;1.30;;
56537;SDS011;42435;53.292;6.000;2023-10-08T02:31:50;9.63;;;1.20;;
56537;SDS011;42435;53.292;6.000;2023-10-08T02:34:16;3.92;;;1.00;;
56537;SDS011;42435;53.292;6.000;2023-10-08T02:36:41;4.03;;;0.68;;
56537;SDS011;42435;53.292;6.000;2023-10-08T02:39:07;6.88;;;1.10;;
56537;SDS011;42435;53.292;6.000;2023-10-08T02:41:46;3.83;;;0.90;;
56537;SDS011;42435;53.292;6.000;2023-10-08T02:44:12;2.95;;;0.80;;
56537;SDS011;42435;53.292;6.000;2023-10-08T02:46:39;5.75;;;1.10;;
56537;SDS011;42435;53.292;6.000;2023-10-08T02:49:06;7.45;;;1.33;;
56537;SDS011;42435;53.292;6.000;2023-10-08T02:51:36;5.03;;;1.30;;
56537;SDS011;42435;53.292;6.000;2023-10-08T02:54:07;2.85;;;0.88;;
56537;SDS011;42435;53.292;6.000;2023-10-08T02:56:41;4.65;;;0.90;;
56537;SDS011;42435;53.292;6.000;2023-10-08T02:59:09;6.38;;;1.20;;
56537;SDS011;42435;53.292;6.000;2023-10-08T03:01:37;3.35;;;0.90;;
56537;SDS011;42435;53.292;6.000;2023-10-08T03:04:05;4.65;;;0.80;;
56537;SDS011;42435;53.292;6.000;2023-10-08T03:06:40;6.93;;;1.50;;
56537;SDS011;42435;53.292;6.000;2023-10-08T03:09:06;6.53;;;1.30;;
56537;SDS011;42435;53.292;6.000;2023-10-08T03:11:32;5.10;;;1.38;;
56537;SDS011;42435;53.292;6.000;2023-10-08T03:14:00;4.90;;;1.23;;
56537;SDS011;42435;53.292;6.000;2023-10-08T03:16:26;6.35;;;1.27;;
56537;SDS011;42435;53.292;6.000;2023-10-08T03:19:00;8.07;;;1.75;;
56537;SDS011;42435;53.292;6.000;2023-10-08T03:21:26;4.72;;;1.20;;
56537;SDS011;42435;53.292;6.000;2023-10-08T03:24:04;7.35;;;1.33;;
56537;SDS011;42435;53.292;6.000;2023-10-08T03:26:37;7.30;;;1.60;;
56537;SDS011;42435;53.292;6.000;2023-10-08T03:29:05;5.63;;;1.40;;
56537;SDS011;42435;53.292;6.000;2023-10-08T03:31:33;6.93;;;1.40;;
56537;SDS011;42435;53.292;6.000;2023-10-08T03:34:14;6.50;;;1.40;;
56537;SDS011;42435;53.292;6.000;2023-10-08T03:36:44;6.00;;;1.58;;
56537;SDS011;42435;53.292;6.000;2023-10-08T03:39:16;4.63;;;1.13;;
56537;SDS011;42435;53.292;6.000;2023-10-08T03:41:43;4.60;;;1.20;;
56537;SDS011;42435;53.292;6.000;2023-10-08T03:44:45;4.07;;;0.90;;
56537;SDS011;42435;53.292;6.000;2023-10-08T03:47:16;2.53;;;1.10;;
56537;SDS011;42435;53.292;6.000;2023-10-08T03:49:44;5.55;;;1.45;;
56537;SDS011;42435;53.292;6.000;2023-10-08T03:52:11;6.45;;;1.40;;
56537;SDS011;42435;53.292;6.000;2023-10-08T03:54:38;4.15;;;1.20;;
56537;SDS011;42435;53.292;6.000;2023-10-08T03:57:07;5.75;;;1.42;;
56537;SDS011;42435;53.292;6.000;2023-10-08T03:59:44;3.08;;;1.17;;
56537;SDS011;42435;53.292;6.000;2023-10-08T04:02:13;8.13;;;1.70;;
56537;SDS011;42435;53.292;6.000;2023-10-08T04:04:40;5.90;;;1.60;;
56537;SDS011;42435;53.292;6.000;2023-10-08T04:07:36;8.68;;;2.30;;
56537;SDS011;42435;53.292;6.000;2023-10-08T04:10:10;5.35;;;1.40;;
56537;SDS011;42435;53.292;6.000;2023-10-08T04:12:38;6.85;;;1.65;;
56537;SDS011;42435;53.292;6.000;2023-10-08T04:15:15;11.52;;;1.90;;
56537;SDS011;42435;53.292;6.000;2023-10-08T04:17:42;8.18;;;1.55;;
56537;SDS011;42435;53.292;6.000;2023-10-08T04:20:14;9.50;;;1.85;;
56537;SDS011;42435;53.292;6.000;2023-10-08T04:22:58;7.10;;;1.50;;
56537;SDS011;42435;53.292;6.000;2023-10-08T04:25:28;9.75;;;1.60;;
56537;SDS011;42435;53.292;6.000;2023-10-08T04:27:55;8.68;;;2.08;;
56537;SDS011;42435;53.292;6.000;2023-10-08T04:30:28;5.80;;;1.30;;
56537;SDS011;42435;53.292;6.000;2023-10-08T04:33:01;7.57;;;1.40;;
56537;SDS011;42435;53.292;6.000;2023-10-08T04:35:37;9.70;;;1.65;;
56537;SDS011;42435;53.292;6.000;2023-10-08T04:38:13;9.00;;;2.15;;
56537;SDS011;42435;53.292;6.000;2023-10-08T04:40:42;7.43;;;1.30;;
56537;SDS011;42435;53.292;6.000;2023-10-08T04:43:13;8.00;;;1.65;;
56537;SDS011;42435;53.292;6.000;2023-10-08T04:45:50;6.45;;;1.40;;
56537;SDS011;42435;53.292;6.000;2023-10-08T04:48:16;7.00;;;1.63;;
56537;SDS011;42435;53.292;6.000;2023-10-08T04:50:46;6.80;;;1.33;;
56537;SDS011;42435;53.292;6.000;2023-10-08T04:53:16;3.05;;;1.00;;
56537;SDS011;42435;53.292;6.000;2023-10-08T04:55:42;8.70;;;1.10;;
56537;SDS011;42435;53.292;6.000;2023-10-08T04:58:13;5.65;;;1.40;;
56537;SDS011;42435;53.292;6.000;2023-10-08T05:00:46;7.13;;;1.63;;
56537;SDS011;42435;53.292;6.000;2023-10-08T05:03:24;7.22;;;1.55;;
56537;SDS011;42435;53.292;6.000;2023-10-08T05:05:57;7.60;;;1.58;;
56537;SDS011;42435;53.292;6.000;2023-10-08T05:08:31;7.07;;;1.30;;
56537;SDS011;42435;53.292;6.000;2023-10-08T05:11:13;13.90;;;1.73;;
56537;SDS011;42435;53.292;6.000;2023-10-08T05:14:12;8.13;;;1.38;;
56537;SDS011;42435;53.292;6.000;2023-10-08T05:16:55;7.95;;;1.42;;
56537;SDS011;42435;53.292;6.000;2023-10-08T05:19:41;7.28;;;1.52;;
56537;SDS011;42435;53.292;6.000;2023-10-08T05:22:13;8.15;;;1.27;;
56537;SDS011;42435;53.292;6.000;2023-10-08T05:24:47;5.68;;;1.33;;
56537;SDS011;42435;53.292;6.000;2023-10-08T05:27:37;5.57;;;0.85;;
56537;SDS011;42435;53.292;6.000;2023-10-08T05:30:13;2.33;;;0.75;;
56537;SDS011;42435;53.292;6.000;2023-10-08T05:33:06;6.78;;;0.90;;
56537;SDS011;42435;53.292;6.000;2023-10-08T05:36:12;7.60;;;1.42;;
56537;SDS011;42435;53.292;6.000;2023-10-08T05:38:59;6.70;;;1.20;;
56537;SDS011;42435;53.292;6.000;2023-10-08T05:41:43;4.30;;;0.88;;
56537;SDS011;42435;53.292;6.000;2023-10-08T05:44:31;4.90;;;1.13;;
56537;SDS011;42435;53.292;6.000;2023-10-08T05:47:06;6.50;;;0.90;;
56537;SDS011;42435;53.292;6.000;2023-10-08T05:49:51;8.20;;;1.20;;
56537;SDS011;42435;53.292;6.000;2023-10-08T05:52:39;5.88;;;1.20;;
56537;SDS011;42435;53.292;6.000;2023-10-08T05:55:28;9.68;;;1.27;;
56537;SDS011;42435;53.292;6.000;2023-10-08T05:58:12;6.20;;;1.08;;
56537;SDS011;42435;53.292;6.000;2023-10-08T06:00:45;4.45;;;1.00;;
56537;SDS011;42435;53.292;6.000;2023-10-08T06:03:31;4.55;;;1.45;;
56537;SDS011;42435;53.292;6.000;2023-10-08T06:06:18;4.78;;;1.13;;
56537;SDS011;42435;53.292;6.000;2023-10-08T06:08:44;3.60;;;0.77;;
56537;SDS011;42435;53.292;6.000;2023-10-08T06:11:29;1.77;;;0.57;;
56537;SDS011;42435;53.292;6.000;2023-10-08T06:14:21;4.93;;;1.10;;
56537;SDS011;42435;53.292;6.000;2023-10-08T06:17:05;5.97;;;0.90;;
56537;SDS011;42435;53.292;6.000;2023-10-08T06:19:59;4.65;;;0.98;;
56537;SDS011;42435;53.292;6.000;2023-10-08T06:22:26;7.05;;;1.10;;
56537;SDS011;42435;53.292;6.000;2023-10-08T06:24:52;4.85;;;1.45;;
56537;SDS011;42435;53.292;6.000;2023-10-08T06:30:05;6.35;;;1.38;;
56537;SDS011;42435;53.292;6.000;2023-10-08T06:32:31;3.60;;;0.80;;
56537;SDS011;42435;53.292;6.000;2023-10-08T06:34:56;4.35;;;0.93;;
56537;SDS011;42435;53.292;6.000;2023-10-08T06:37:22;3.00;;;1.00;;
56537;SDS011;42435;53.292;6.000;2023-10-08T06:39:48;5.25;;;1.20;;
56537;SDS011;42435;53.292;6.000;2023-10-08T06:42:13;7.78;;;1.50;;
56537;SDS011;42435;53.292;6.000;2023-10-08T06:44:40;8.32;;;1.20;;
56537;SDS011;42435;53.292;6.000;2023-10-08T06:47:09;8.50;;;1.35;;
56537;SDS011;42435;53.292;6.000;2023-10-08T06:49:34;4.13;;;1.02;;
56537;SDS011;42435;53.292;6.000;2023-10-08T06:52:01;3.90;;;1.30;;
56537;SDS011;42435;53.292;6.000;2023-10-08T06:54:27;5.40;;;1.33;;
56537;SDS011;42435;53.292;6.000;2023-10-08T06:56:55;7.72;;;1.27;;
56537;SDS011;42435;53.292;6.000;2023-10-08T06:59:21;8.32;;;1.25;;
56537;SDS011;42435;53.292;6.000;2023-10-08T07:01:50;3.58;;;0.90;;
56537;SDS011;42435;53.292;6.000;2023-10-08T07:04:17;6.43;;;1.58;;
56537;SDS011;42435;53.292;6.000;2023-10-08T07:06:44;6.60;;;1.67;;
56537;SDS011;42435;53.292;6.000;2023-10-08T07:09:11;4.22;;;0.98;;
56537;SDS011;42435;53.292;6.000;2023-10-08T07:11:53;8.25;;;1.30;;
56537;SDS011;42435;53.292;6.000;2023-10-08T07:14:28;4.80;;;1.48;;
56537;SDS011;42435;53.292;6.000;2023-10-08T07:16:56;9.55;;;1.65;;
56537;SDS011;42435;53.292;6.000;2023-10-08T07:19:29;5.60;;;1.30;;
56537;SDS011;42435;53.292;6.000;2023-10-08T07:22:02;7.55;;;1.65;;
56537;SDS011;42435;53.292;6.000;2023-10-08T07:24:44;10.45;;;2.55;;
56537;SDS011;42435;53.292;6.000;2023-10-08T07:27:11;9.00;;;2.85;;
56537;SDS011;42435;53.292;6.000;2023-10-08T07:29:36;6.88;;;2.75;;
56537;SDS011;42435;53.292;6.000;2023-10-08T07:32:05;12.02;;;5.05;;
56537;SDS011;42435;53.292;6.000;2023-10-08T07:34:35;5.80;;;3.55;;
56537;SDS011;42435;53.292;6.000;2023-10-08T07:37:01;8.95;;;2.30;;
56537;SDS011;42435;53.292;6.000;2023-10-08T07:39:27;6.95;;;1.50;;
56537;SDS011;42435;53.292;6.000;2023-10-08T07:42:01;4.47;;;1.30;;
56537;SDS011;42435;53.292;6.000;2023-10-08T07:44:31;11.55;;;2.10;;
56537;SDS011;42435;53.292;6.000;2023-10-08T07:47:00;5.75;;;1.58;;
56537;SDS011;42435;53.292;6.000;2023-10-08T07:49:26;8.00;;;1.58;;
56537;SDS011;42435;53.292;6.000;2023-10-08T07:51:55;10.07;;;1.80;;
56537;SDS011;42435;53.292;6.000;2023-10-08T07:54:22;8.13;;;2.47;;
56537;SDS011;42435;53.292;6.000;2023-10-08T07:57:09;9.35;;;1.98;;
56537;SDS011;42435;53.292;6.000;2023-10-08T07:59:38;6.40;;;1.52;;
56537;SDS011;42435;53.292;6.000;2023-10-08T08:02:15;7.60;;;2.10;;
56537;SDS011;42435;53.292;6.000;2023-10-08T08:04:42;8.93;;;1.75;;
56537;SDS011;42435;53.292;6.000;2023-10-08T08:07:10;6.25;;;1.85;;
56537;SDS011;42435;53.292;6.000;2023-10-08T08:09:43;9.40;;;3.05;;
56537;SDS011;42435;53.292;6.000;2023-10-08T08:12:15;10.00;;;3.08;;
56537;SDS011;42435;53.292;6.000;2023-10-08T08:14:41;5.40;;;2.53;;
56537;SDS011;42435;53.292;6.000;2023-10-08T08:17:08;6.68;;;2.25;;
56537;SDS011;42435;53.292;6.000;2023-10-08T08:19:43;5.78;;;1.60;;
56537;SDS011;42435;53.292;6.000;2023-10-08T08:22:12;4.90;;;1.88;;
56537;SDS011;42435;53.292;6.000;2023-10-08T08:24:45;11.15;;;2.50;;
56537;SDS011;42435;53.292;6.000;2023-10-08T08:27:18;7.15;;;4.35;;
56537;SDS011;42435;53.292;6.000;2023-10-08T08:29:57;11.00;;;2.70;;
56537;SDS011;42435;53.292;6.000;2023-10-08T08:32:38;6.18;;;2.20;;
56537;SDS011;42435;53.292;6.000;2023-10-08T08:35:08;9.15;;;3.70;;
56537;SDS011;42435;53.292;6.000;2023-10-08T08:37:34;8.23;;;3.85;;
56537;SDS011;42435;53.292;6.000;2023-10-08T08:40:03;8.98;;;2.83;;
56537;SDS011;42435;53.292;6.000;2023-10-08T08:42:48;8.57;;;2.38;;
56537;SDS011;42435;53.292;6.000;2023-10-08T08:45:21;6.35;;;2.30;;
56537;SDS011;42435;53.292;6.000;2023-10-08T08:47:50;6.15;;;2.10;;
56537;SDS011;42435;53.292;6.000;2023-10-08T08:50:18;6.40;;;2.45;;
56537;SDS011;42435;53.292;6.000;2023-10-08T08:52:46;7.20;;;1.85;;
56537;SDS011;42435;53.292;6.000;2023-10-08T08:55:12;7.25;;;2.00;;
56537;SDS011;42435;53.292;6.000;2023-10-08T08:57:41;9.90;;;2.00;;
56537;SDS011;42435;53.292;6.000;2023-10-08T09:00:11;6.05;;;2.17;;
56537;SDS011;42435;53.292;6.000;2023-10-08T09:02:37;6.47;;;1.50;;
56537;SDS011;42435;53.292;6.000;2023-10-08T09:05:03;4.35;;;1.42;;
56537;SDS011;42435;53.292;6.000;2023-10-08T09:07:54;7.25;;;1.45;;
56537;SDS011;42435;53.292;6.000;2023-10-08T09:10:22;5.38;;;1.50;;
56537;SDS011;42435;53.292;6.000;2023-10-08T09:12:52;15.50;;;7.57;;
56537;SDS011;42435;53.292;6.000;2023-10-08T09:15:19;10.80;;;5.88;;
56537;SDS011;42435;53.292;6.000;2023-10-08T09:17:47;14.45;;;3.72;;
56537;SDS011;42435;53.292;6.000;2023-10-08T09:20:14;7.25;;;2.00;;
56537;SDS011;42435;53.292;6.000;2023-10-08T09:22:40;8.43;;;1.52;;
56537;SDS011;42435;53.292;6.000;2023-10-08T09:25:06;5.28;;;1.70;;
56537;SDS011;42435;53.292;6.000;2023-10-08T09:27:32;5.22;;;1.25;;
56537;SDS011;42435;53.292;6.000;2023-10-08T09:30:05;7.57;;;2.28;;
56537;SDS011;42435;53.292;6.000;2023-10-08T09:32:34;5.25;;;1.77;;
56537;SDS011;42435;53.292;6.000;2023-10-08T09:35:04;6.35;;;1.23;;
56537;SDS011;42435;53.292;6.000;2023-10-08T09:37:32;7.40;;;1.20;;
56537;SDS011;42435;53.292;6.000;2023-10-08T09:40:00;11.90;;;1.73;;
56537;SDS011;42435;53.292;6.000;2023-10-08T09:42:32;3.67;;;0.98;;
56537;SDS011;42435;53.292;6.000;2023-10-08T09:45:00;6.97;;;1.77;;
56537;SDS011;42435;53.292;6.000;2023-10-08T09:47:31;10.02;;;1.63;;
56537;SDS011;42435;53.292;6.000;2023-10-08T09:50:04;7.72;;;1.63;;
56537;SDS011;42435;53.292;6.000;2023-10-08T09:52:38;8.57;;;2.08;;
56537;SDS011;42435;53.292;6.000;2023-10-08T09:55:09;5.38;;;1.80;;
56537;SDS011;42435;53.292;6.000;2023-10-08T09:57:36;6.72;;;1.70;;
56537;SDS011;42435;53.292;6.000;2023-10-08T10:00:02;4.07;;;1.10;;
56537;SDS011;42435;53.292;6.000;2023-10-08T10:02:31;3.97;;;1.25;;
56537;SDS011;42435;53.292;6.000;2023-10-08T10:04:58;5.75;;;1.80;;
56537;SDS011;42435;53.292;6.000;2023-10-08T10:07:25;8.10;;;1.25;;
56537;SDS011;42435;53.292;6.000;2023-10-08T10:09:53;7.95;;;1.88;;
56537;SDS011;42435;53.292;6.000;2023-10-08T10:12:21;4.28;;;1.15;;
56537;SDS011;42435;53.292;6.000;2023-10-08T10:14:52;6.57;;;1.02;;
56537;SDS011;42435;53.292;6.000;2023-10-08T10:17:30;3.25;;;1.17;;
56537;SDS011;42435;53.292;6.000;2023-10-08T10:19:56;11.65;;;2.08;;
56537;SDS011;42435;53.292;6.000;2023-10-08T10:22:27;3.80;;;1.25;;
56537;SDS011;42435;53.292;6.000;2023-10-08T10:24:58;5.63;;;1.20;;
56537;SDS011;42435;53.292;6.000;2023-10-08T10:27:28;5.90;;;1.48;;
56537;SDS011;42435;53.292;6.000;2023-10-08T10:30:00;6.68;;;1.25;;
56537;SDS011;42435;53.292;6.000;2023-10-08T10:32:33;9.43;;;1.20;;
56537;SDS011;42435;53.292;6.000;2023-10-08T10:34:59;4.13;;;1.00;;
56537;SDS011;42435;53.292;6.000;2023-10-08T10:37:28;4.05;;;1.10;;
56537;SDS011;42435;53.292;6.000;2023-10-08T10:40:06;3.67;;;0.93;;
56537;SDS011;42435;53.292;6.000;2023-10-08T10:42:40;8.18;;;1.40;;
56537;SDS011;42435;53.292;6.000;2023-10-08T10:45:13;5.60;;;2.20;;
56537;SDS011;42435;53.292;6.000;2023-10-08T10:47:59;5.20;;;1.58;;
56537;SDS011;42435;53.292;6.000;2023-10-08T10:50:49;8.63;;;1.50;;
56537;SDS011;42435;53.292;6.000;2023-10-08T10:56:10;5.20;;;1.20;;
56537;SDS011;42435;53.292;6.000;2023-10-08T10:58:47;7.53;;;1.33;;
56537;SDS011;42435;53.292;6.000;2023-10-08T11:03:51;5.85;;;1.38;;
56537;SDS011;42435;53.292;6.000;2023-10-08T11:06:20;6.65;;;1.27;;
56537;SDS011;42435;53.292;6.000;2023-10-08T11:08:51;6.65;;;1.08;;
56537;SDS011;42435;53.292;6.000;2023-10-08T11:11:18;6.05;;;1.45;;
56537;SDS011;42435;53.292;6.000;2023-10-08T11:13:44;5.65;;;1.33;;
56537;SDS011;42435;53.292;6.000;2023-10-08T11:16:22;3.90;;;1.13;;
56537;SDS011;42435;53.292;6.000;2023-10-08T11:18:52;6.60;;;1.15;;
56537;SDS011;42435;53.292;6.000;2023-10-08T11:21:22;5.72;;;1.10;;
56537;SDS011;42435;53.292;6.000;2023-10-08T11:23:50;4.63;;;1.33;;
56537;SDS011;42435;53.292;6.000;2023-10-08T11:26:35;4.13;;;1.02;;
56537;SDS011;42435;53.292;6.000;2023-10-08T11:29:05;5.95;;;1.08;;
56537;SDS011;42435;53.292;6.000;2023-10-08T11:31:39;5.38;;;1.27;;
56537;SDS011;42435;53.292;6.000;2023-10-08T11:34:05;7.95;;;1.27;;
56537;SDS011;42435;53.292;6.000;2023-10-08T11:36:34;8.13;;;1.10;;
56537;SDS011;42435;53.292;6.000;2023-10-08T11:39:14;5.20;;;1.17;;
56537;SDS011;42435;53.292;6.000;2023-10-08T11:42:02;5.55;;;1.40;;
56537;SDS011;42435;53.292;6.000;2023-10-08T11:44:32;6.15;;;1.13;;
56537;SDS011;42435;53.292;6.000;2023-10-08T11:47:01;8.52;;;1.40;;
56537;SDS011;42435;53.292;6.000;2023-10-08T11:49:37;4.93;;;1.58;;
56537;SDS011;42435;53.292;6.000;2023-10-08T11:54:40;6.90;;;1.63;;
56537;SDS011;42435;53.292;6.000;2023-10-08T11:57:07;6.05;;;1.30;;
56537;SDS011;42435;53.292;6.000;2023-10-08T11:59:34;8.50;;;1.88;;
56537;SDS011;42435;53.292;6.000;2023-10-08T12:02:04;3.70;;;1.00;;
56537;SDS011;42435;53.292;6.000;2023-10-08T12:04:31;4.30;;;1.00;;
56537;SDS011;42435;53.292;6.000;2023-10-08T12:06:56;5.93;;;1.40;;
56537;SDS011;42435;53.292;6.000;2023-10-08T12:09:26;6.75;;;1.27;;
56537;SDS011;42435;53.292;6.000;2023-10-08T12:11:53;5.40;;;0.82;;
56537;SDS011;42435;53.292;6.000;2023-10-08T12:14:19;6.90;;;1.10;;
56537;SDS011;42435;53.292;6.000;2023-10-08T12:16:44;6.30;;;1.30;;
56537;SDS011;42435;53.292;6.000;2023-10-08T12:19:10;6.80;;;0.93;;
56537;SDS011;42435;53.292;6.000;2023-10-08T12:21:42;4.63;;;1.60;;
56537;SDS011;42435;53.292;6.000;2023-10-08T12:24:11;6.32;;;1.13;;
56537;SDS011;42435;53.292;6.000;2023-10-08T12:26:40;5.30;;;1.40;;
56537;SDS011;42435;53.292;6.000;2023-10-08T12:29:14;11.43;;;2.03;;
56537;SDS011;42435;53.292;6.000;2023-10-08T12:31:43;5.00;;;1.38;;
56537;SDS011;42435;53.292;6.000;2023-10-08T12:34:12;7.18;;;1.30;;
56537;SDS011;42435;53.292;6.000;2023-10-08T12:36:41;6.85;;;1.75;;
56537;SDS011;42435;53.292;6.000;2023-10-08T12:39:07;5.25;;;1.42;;
56537;SDS011;42435;53.292;6.000;2023-10-08T12:41:41;6.07;;;1.15;;
56537;SDS011;42435;53.292;6.000;2023-10-08T12:44:08;9.88;;;1.50;;
56537;SDS011;42435;53.292;6.000;2023-10-08T12:46:35;4.50;;;1.27;;
56537;SDS011;42435;53.292;6.000;2023-10-08T12:49:03;6.63;;;1.10;;
56537;SDS011;42435;53.292;6.000;2023-10-08T12:51:29;9.00;;;1.35;;
56537;SDS011;42435;53.292;6.000;2023-10-08T12:53:58;6.53;;;1.13;;
56537;SDS011;42435;53.292;6.000;2023-10-08T12:56:36;8.82;;;1.30;;
56537;SDS011;42435;53.292;6.000;2023-10-08T12:59:10;7.07;;;1.83;;
56537;SDS011;42435;53.292;6.000;2023-10-08T13:01:45;6.40;;;1.52;;
56537;SDS011;42435;53.292;6.000;2023-10-08T13:04:15;3.97;;;1.25;;
56537;SDS011;42435;53.292;6.000;2023-10-08T13:06:57;6.72;;;1.38;;
56537;SDS011;42435;53.292;6.000;2023-10-08T13:09:27;6.68;;;1.35;;
56537;SDS011;42435;53.292;6.000;2023-10-08T13:11:56;5.13;;;1.17;;
56537;SDS011;42435;53.292;6.000;2023-10-08T13:14:24;7.32;;;1.20;;
56537;SDS011;42435;53.292;6.000;2023-10-08T13:16:50;7.68;;;1.45;;
56537;SDS011;42435;53.292;6.000;2023-10-08T13:19:19;3.53;;;1.25;;
56537;SDS011;42435;53.292;6.000;2023-10-08T13:21:45;5.57;;;1.30;;
56537;SDS011;42435;53.292;6.000;2023-10-08T13:24:12;5.65;;;1.35;;
56537;SDS011;42435;53.292;6.000;2023-10-08T13:26:38;4.25;;;1.00;;
56537;SDS011;42435;53.292;6.000;2023-10-08T13:29:04;5.90;;;1.30;;
56537;SDS011;42435;53.292;6.000;2023-10-08T13:31:34;3.10;;;0.90;;
56537;SDS011;42435;53.292;6.000;2023-10-08T13:34:04;6.18;;;1.60;;
56537;SDS011;42435;53.292;6.000;2023-10-08T13:36:33;5.40;;;1.02;;
56537;SDS011;42435;53.292;6.000;2023-10-08T13:39:02;3.97;;;1.20;;
56537;SDS011;42435;53.292;6.000;2023-10-08T13:41:33;6.43;;;1.50;;
56537;SDS011;42435;53.292;6.000;2023-10-08T13:43:59;5.38;;;1.40;;
56537;SDS011;42435;53.292;6.000;2023-10-08T13:46:30;7.07;;;1.75;;
56537;SDS011;42435;53.292;6.000;2023-10-08T13:48:56;3.60;;;1.48;;
56537;SDS011;42435;53.292;6.000;2023-10-08T13:51:23;4.20;;;1.10;;
56537;SDS011;42435;53.292;6.000;2023-10-08T13:53:50;7.53;;;1.55;;
56537;SDS011;42435;53.292;6.000;2023-10-08T13:56:24;5.20;;;0.98;;
56537;SDS011;42435;53.292;6.000;2023-10-08T13:58:55;4.55;;;1.15;;
56537;SDS011;42435;53.292;6.000;2023-10-08T14:01:29;4.93;;;1.67;;
56537;SDS011;42435;53.292;6.000;2023-10-08T14:03:58;10.88;;;1.95;;
56537;SDS011;42435;53.292;6.000;2023-10-08T14:06:36;4.30;;;1.20;;
56537;SDS011;42435;53.292;6.000;2023-10-08T14:09:06;6.10;;;1.40;;
56537;SDS011;42435;53.292;6.000;2023-10-08T14:11:34;8.35;;;1.60;;
56537;SDS011;42435;53.292;6.000;2023-10-08T14:14:00;6.70;;;1.10;;
56537;SDS011;42435;53.292;6.000;2023-10-08T14:16:36;7.63;;;1.73;;
56537;SDS011;42435;53.292;6.000;2023-10-08T14:19:06;8.75;;;1.10;;
56537;SDS011;42435;53.292;6.000;2023-10-08T14:21:33;5.32;;;1.52;;
56537;SDS011;42435;53.292;6.000;2023-10-08T14:24:08;3.78;;;1.60;;
56537;SDS011;42435;53.292;6.000;2023-10-08T14:26:40;6.55;;;1.20;;
56537;SDS011;42435;53.292;6.000;2023-10-08T14:29:07;4.57;;;1.02;;
56537;SDS011;42435;53.292;6.000;2023-10-08T14:31:36;4.97;;;1.30;;
56537;SDS011;42435;53.292;6.000;2023-10-08T14:34:04;7.47;;;1.25;;
56537;SDS011;42435;53.292;6.000;2023-10-08T14:36:31;6.03;;;2.55;;
56537;SDS011;42435;53.292;6.000;2023-10-08T14:39:16;8.48;;;1.52;;
56537;SDS011;42435;53.292;6.000;2023-10-08T14:42:01;6.00;;;1.15;;
56537;SDS011;42435;53.292;6.000;2023-10-08T14:44:45;4.25;;;1.70;;
56537;SDS011;42435;53.292;6.000;2023-10-08T14:47:12;5.97;;;1.88;;
56537;SDS011;42435;53.292;6.000;2023-10-08T14:49:38;5.82;;;1.20;;
56537;SDS011;42435;53.292;6.000;2023-10-08T14:52:03;5.90;;;1.38;;
56537;SDS011;42435;53.292;6.000;2023-10-08T14:54:30;7.28;;;2.70;;
56537;SDS011;42435;53.292;6.000;2023-10-08T14:56:58;6.18;;;1.45;;
56537;SDS011;42435;53.292;6.000;2023-10-08T14:59:24;6.43;;;1.45;;
56537;SDS011;42435;53.292;6.000;2023-10-08T15:01:53;8.07;;;1.80;;
56537;SDS011;42435;53.292;6.000;2023-10-08T15:04:20;5.50;;;1.40;;
56537;SDS011;42435;53.292;6.000;2023-10-08T15:06:49;4.53;;;1.42;;
56537;SDS011;42435;53.292;6.000;2023-10-08T15:09:15;4.47;;;1.23;;
56537;SDS011;42435;53.292;6.000;2023-10-08T15:11:55;5.63;;;1.10;;
56537;SDS011;42435;53.292;6.000;2023-10-08T15:14:23;5.45;;;1.35;;
56537;SDS011;42435;53.292;6.000;2023-10-08T15:16:49;6.03;;;1.33;;
56537;SDS011;42435;53.292;6.000;2023-10-08T15:19:22;5.50;;;1.30;;
56537;SDS011;42435;53.292;6.000;2023-10-08T15:21:49;5.85;;;1.35;;
56537;SDS011;42435;53.292;6.000;2023-10-08T15:24:24;5.18;;;1.50;;